Terminal Aerodrome Forecast
Issued by NWS

Home | Current Version | Previous Version | Text Only | Print | Product List | Glossary On
Versions: 1 2 3 4 5 6 7 8 9 10 11 12 13 14 15 16 17 18 19
000
FTUS41 KBGM 251412 AAB
TAFELM
TAF AMD
KELM 251412Z 2514/2612 11008G16KT P6SM BKN018 OVC025
     FM251800 11008G16KT P6SM BKN025 OVC040
     FM252300 10008KT P6SM -RA OVC015
     FM260400 VRB04KT 5SM -DZ BR OVC012=

USA.gov is the U.S. government's official web portal to all federal, state and local government web resources and services.